sensor_id;sensor_type;location;lat;lon;timestamp;temperature;humidity
38488;DHT22;57384;51.986;4.458;2024-02-26T00:04:07;7.30;84.70
38488;DHT22;57384;51.986;4.458;2024-02-26T00:10:11;7.30;84.80
38488;DHT22;57384;51.986;4.458;2024-02-26T00:13:12;7.30;84.90
38488;DHT22;57384;51.986;4.458;2024-02-26T00:16:05;7.30;84.80
38488;DHT22;57384;51.986;4.458;2024-02-26T00:19:19;7.30;84.80
38488;DHT22;57384;51.986;4.458;2024-02-26T00:26:01;7.30;84.90
38488;DHT22;57384;51.986;4.458;2024-02-26T00:29:17;7.30;85.40
38488;DHT22;57384;51.986;4.458;2024-02-26T00:32:24;7.30;84.90
38488;DHT22;57384;51.986;4.458;2024-02-26T00:42:11;7.20;84.90
38488;DHT22;57384;51.986;4.458;2024-02-26T00:45:07;7.20;84.90
38488;DHT22;57384;51.986;4.458;2024-02-26T00:48:14;7.20;84.90
38488;DHT22;57384;51.986;4.458;2024-02-26T00:51:12;7.20;85.00
38488;DHT22;57384;51.986;4.458;2024-02-26T00:54:11;7.20;84.90
38488;DHT22;57384;51.986;4.458;2024-02-26T01:00:58;7.20;84.90
38488;DHT22;57384;51.986;4.458;2024-02-26T01:03:42;7.20;84.90
38488;DHT22;57384;51.986;4.458;2024-02-26T01:13:32;7.20;85.00
38488;DHT22;57384;51.986;4.458;2024-02-26T01:19:53;7.20;85.00
38488;DHT22;57384;51.986;4.458;2024-02-26T01:23:13;7.20;85.00
38488;DHT22;57384;51.986;4.458;2024-02-26T01:29:30;7.20;85.00
38488;DHT22;57384;51.986;4.458;2024-02-26T01:32:52;7.20;85.10
38488;DHT22;57384;51.986;4.458;2024-02-26T01:36:00;7.20;85.10
38488;DHT22;57384;51.986;4.458;2024-02-26T01:38:55;7.20;85.00
38488;DHT22;57384;51.986;4.458;2024-02-26T01:42:33;7.20;85.10
38488;DHT22;57384;51.986;4.458;2024-02-26T01:45:29;7.20;85.70
38488;DHT22;57384;51.986;4.458;2024-02-26T01:48:37;7.20;85.00
38488;DHT22;57384;51.986;4.458;2024-02-26T01:55:10;7.20;85.10
38488;DHT22;57384;51.986;4.458;2024-02-26T01:58:20;7.10;85.00
38488;DHT22;57384;51.986;4.458;2024-02-26T02:01:47;7.20;85.10
38488;DHT22;57384;51.986;4.458;2024-02-26T02:14:46;7.20;85.20
38488;DHT22;57384;51.986;4.458;2024-02-26T02:18:10;7.20;85.20
38488;DHT22;57384;51.986;4.458;2024-02-26T02:25:07;7.20;85.10
38488;DHT22;57384;51.986;4.458;2024-02-26T02:32:02;7.20;85.20
38488;DHT22;57384;51.986;4.458;2024-02-26T02:34:59;7.20;85.20
38488;DHT22;57384;51.986;4.458;2024-02-26T02:38:09;7.20;85.10
38488;DHT22;57384;51.986;4.458;2024-02-26T02:48:37;7.20;85.20
38488;DHT22;57384;51.986;4.458;2024-02-26T02:54:46;7.20;85.20
38488;DHT22;57384;51.986;4.458;2024-02-26T03:01:14;7.20;85.20
38488;DHT22;57384;51.986;4.458;2024-02-26T03:04:15;7.20;84.90
38488;DHT22;57384;51.986;4.458;2024-02-26T03:07:15;7.20;85.00
38488;DHT22;57384;51.986;4.458;2024-02-26T03:10:44;7.20;85.00
38488;DHT22;57384;51.986;4.458;2024-02-26T03:14:08;7.20;85.10
38488;DHT22;57384;51.986;4.458;2024-02-26T03:17:20;7.20;85.00
38488;DHT22;57384;51.986;4.458;2024-02-26T03:23:31;7.20;85.00
38488;DHT22;57384;51.986;4.458;2024-02-26T03:26:29;7.30;85.10
38488;DHT22;57384;51.986;4.458;2024-02-26T03:29:38;7.20;85.10
38488;DHT22;57384;51.986;4.458;2024-02-26T03:33:12;7.20;84.90
38488;DHT22;57384;51.986;4.458;2024-02-26T03:36:45;7.30;85.00
38488;DHT22;57384;51.986;4.458;2024-02-26T03:40:00;7.20;85.00
38488;DHT22;57384;51.986;4.458;2024-02-26T03:42:50;7.20;85.00
38488;DHT22;57384;51.986;4.458;2024-02-26T03:45:59;7.20;85.00
38488;DHT22;57384;51.986;4.458;2024-02-26T03:48:52;7.20;85.10
38488;DHT22;57384;51.986;4.458;2024-02-26T03:51:52;7.20;85.10
38488;DHT22;57384;51.986;4.458;2024-02-26T03:55:04;7.20;85.10
38488;DHT22;57384;51.986;4.458;2024-02-26T03:58:12;7.20;85.20
38488;DHT22;57384;51.986;4.458;2024-02-26T04:01:11;7.20;85.10
38488;DHT22;57384;51.986;4.458;2024-02-26T04:11:01;7.20;85.10
38488;DHT22;57384;51.986;4.458;2024-02-26T04:20:33;7.20;85.20
38488;DHT22;57384;51.986;4.458;2024-02-26T04:23:42;7.20;85.20
38488;DHT22;57384;51.986;4.458;2024-02-26T04:26:39;7.10;85.10
38488;DHT22;57384;51.986;4.458;2024-02-26T04:29:47;7.20;85.20
38488;DHT22;57384;51.986;4.458;2024-02-26T04:33:02;7.20;85.20
38488;DHT22;57384;51.986;4.458;2024-02-26T04:36:12;7.20;85.20
38488;DHT22;57384;51.986;4.458;2024-02-26T04:42:56;7.10;85.20
38488;DHT22;57384;51.986;4.458;2024-02-26T04:45:49;7.20;85.20
38488;DHT22;57384;51.986;4.458;2024-02-26T04:52:51;7.20;85.30
38488;DHT22;57384;51.986;4.458;2024-02-26T04:55:46;7.10;85.30
38488;DHT22;57384;51.986;4.458;2024-02-26T05:05:39;7.10;85.20
38488;DHT22;57384;51.986;4.458;2024-02-26T05:08:49;7.10;85.20
38488;DHT22;57384;51.986;4.458;2024-02-26T05:11:59;7.10;85.30
38488;DHT22;57384;51.986;4.458;2024-02-26T05:15:17;7.10;85.30
38488;DHT22;57384;51.986;4.458;2024-02-26T05:18:37;7.10;85.30
38488;DHT22;57384;51.986;4.458;2024-02-26T05:35:50;7.10;86.00
38488;DHT22;57384;51.986;4.458;2024-02-26T05:38:56;7.00;85.40
38488;DHT22;57384;51.986;4.458;2024-02-26T05:42:00;7.10;85.50
38488;DHT22;57384;51.986;4.458;2024-02-26T05:54:52;7.00;85.50
38488;DHT22;57384;51.986;4.458;2024-02-26T05:57:51;7.10;85.50
38488;DHT22;57384;51.986;4.458;2024-02-26T06:01:07;7.00;85.40
38488;DHT22;57384;51.986;4.458;2024-02-26T06:04:21;7.00;85.50
38488;DHT22;57384;51.986;4.458;2024-02-26T06:07:34;7.00;85.40
38488;DHT22;57384;51.986;4.458;2024-02-26T06:10:38;7.00;85.50
38488;DHT22;57384;51.986;4.458;2024-02-26T06:14:07;7.00;85.50
38488;DHT22;57384;51.986;4.458;2024-02-26T06:17:08;7.00;85.50
38488;DHT22;57384;51.986;4.458;2024-02-26T06:40:51;6.90;85.50
38488;DHT22;57384;51.986;4.458;2024-02-26T06:44:08;6.90;85.50
38488;DHT22;57384;51.986;4.458;2024-02-26T06:55:07;7.00;85.60
38488;DHT22;57384;51.986;4.458;2024-02-26T07:13:10;6.90;85.70
38488;DHT22;57384;51.986;4.458;2024-02-26T07:26:52;6.90;85.70
38488;DHT22;57384;51.986;4.458;2024-02-26T07:36:35;6.90;85.80
38488;DHT22;57384;51.986;4.458;2024-02-26T07:42:33;6.90;85.80
38488;DHT22;57384;51.986;4.458;2024-02-26T07:52:54;6.90;85.90
38488;DHT22;57384;51.986;4.458;2024-02-26T08:06:10;6.90;86.00
38488;DHT22;57384;51.986;4.458;2024-02-26T08:09:13;6.90;85.90
38488;DHT22;57384;51.986;4.458;2024-02-26T08:22:20;6.90;86.00
38488;DHT22;57384;51.986;4.458;2024-02-26T08:25:27;6.90;85.90
38488;DHT22;57384;51.986;4.458;2024-02-26T08:28:14;6.90;86.00
38488;DHT22;57384;51.986;4.458;2024-02-26T08:34:13;7.00;86.00
38488;DHT22;57384;51.986;4.458;2024-02-26T08:37:21;7.00;86.00
38488;DHT22;57384;51.986;4.458;2024-02-26T08:40:18;7.00;86.00
38488;DHT22;57384;51.986;4.458;2024-02-26T08:43:20;7.00;86.00
38488;DHT22;57384;51.986;4.458;2024-02-26T08:46:27;7.00;86.00
38488;DHT22;57384;51.986;4.458;2024-02-26T08:52:42;7.00;86.00
38488;DHT22;57384;51.986;4.458;2024-02-26T08:55:57;7.00;86.00
38488;DHT22;57384;51.986;4.458;2024-02-26T08:58:51;7.00;86.00
38488;DHT22;57384;51.986;4.458;2024-02-26T09:01:57;7.00;86.00
38488;DHT22;57384;51.986;4.458;2024-02-26T09:04:58;7.00;86.40
38488;DHT22;57384;51.986;4.458;2024-02-26T09:21:32;7.10;86.00
38488;DHT22;57384;51.986;4.458;2024-02-26T09:24:20;7.10;86.00
38488;DHT22;57384;51.986;4.458;2024-02-26T09:27:14;7.10;86.00
38488;DHT22;57384;51.986;4.458;2024-02-26T09:30:04;7.10;86.00
38488;DHT22;57384;51.986;4.458;2024-02-26T09:32:58;7.10;86.00
38488;DHT22;57384;51.986;4.458;2024-02-26T09:35:48;7.10;86.10
38488;DHT22;57384;51.986;4.458;2024-02-26T09:38:33;7.10;86.00
38488;DHT22;57384;51.986;4.458;2024-02-26T09:41:17;7.10;86.00
38488;DHT22;57384;51.986;4.458;2024-02-26T09:50:43;7.20;86.10
38488;DHT22;57384;51.986;4.458;2024-02-26T09:53:48;7.20;86.00
38488;DHT22;57384;51.986;4.458;2024-02-26T09:56:36;7.20;86.00
38488;DHT22;57384;51.986;4.458;2024-02-26T09:59:26;7.20;86.10
38488;DHT22;57384;51.986;4.458;2024-02-26T10:02:17;7.20;86.10
38488;DHT22;57384;51.986;4.458;2024-02-26T10:05:02;7.20;86.10
38488;DHT22;57384;51.986;4.458;2024-02-26T10:07:47;7.30;86.10
38488;DHT22;57384;51.986;4.458;2024-02-26T10:10:32;7.30;86.10
38488;DHT22;57384;51.986;4.458;2024-02-26T10:13:17;7.30;86.10
38488;DHT22;57384;51.986;4.458;2024-02-26T10:16:01;7.30;86.20
38488;DHT22;57384;51.986;4.458;2024-02-26T10:18:47;7.30;86.70
38488;DHT22;57384;51.986;4.458;2024-02-26T10:21:31;7.30;86.10
38488;DHT22;57384;51.986;4.458;2024-02-26T10:24:16;7.30;86.10
38488;DHT22;57384;51.986;4.458;2024-02-26T10:27:02;7.30;86.10
38488;DHT22;57384;51.986;4.458;2024-02-26T10:29:46;7.30;86.10
38488;DHT22;57384;51.986;4.458;2024-02-26T10:32:32;7.40;86.20
38488;DHT22;57384;51.986;4.458;2024-02-26T10:35:17;7.40;86.10
38488;DHT22;57384;51.986;4.458;2024-02-26T10:38:01;7.40;86.10
38488;DHT22;57384;51.986;4.458;2024-02-26T10:40:48;7.40;86.20
38488;DHT22;57384;51.986;4.458;2024-02-26T10:43:32;7.40;86.20
38488;DHT22;57384;51.986;4.458;2024-02-26T10:46:16;7.40;86.20
38488;DHT22;57384;51.986;4.458;2024-02-26T10:49:01;7.40;86.20
38488;DHT22;57384;51.986;4.458;2024-02-26T10:51:46;7.50;86.80
38488;DHT22;57384;51.986;4.458;2024-02-26T10:54:35;7.50;86.20
38488;DHT22;57384;51.986;4.458;2024-02-26T10:57:20;7.50;86.30
38488;DHT22;57384;51.986;4.458;2024-02-26T11:00:05;7.50;86.30
38488;DHT22;57384;51.986;4.458;2024-02-26T11:02:52;7.40;86.20
38488;DHT22;57384;51.986;4.458;2024-02-26T11:05:37;7.50;86.30
38488;DHT22;57384;51.986;4.458;2024-02-26T11:08:22;7.50;86.30
38488;DHT22;57384;51.986;4.458;2024-02-26T11:11:08;7.60;86.40
38488;DHT22;57384;51.986;4.458;2024-02-26T11:13:53;7.50;86.30
38488;DHT22;57384;51.986;4.458;2024-02-26T11:16:39;7.50;86.30
38488;DHT22;57384;51.986;4.458;2024-02-26T11:19:24;7.50;86.30
38488;DHT22;57384;51.986;4.458;2024-02-26T11:22:08;7.50;86.30
38488;DHT22;57384;51.986;4.458;2024-02-26T11:24:56;7.60;86.40
38488;DHT22;57384;51.986;4.458;2024-02-26T11:27:44;7.60;86.40
38488;DHT22;57384;51.986;4.458;2024-02-26T11:30:32;7.60;86.40
38488;DHT22;57384;51.986;4.458;2024-02-26T11:33:19;7.60;86.40
38488;DHT22;57384;51.986;4.458;2024-02-26T11:36:11;7.60;86.40
38488;DHT22;57384;51.986;4.458;2024-02-26T11:38:55;7.60;86.40
38488;DHT22;57384;51.986;4.458;2024-02-26T11:41:40;7.60;86.40
38488;DHT22;57384;51.986;4.458;2024-02-26T11:44:33;7.60;86.40
38488;DHT22;57384;51.986;4.458;2024-02-26T11:47:20;7.60;87.00
38488;DHT22;57384;51.986;4.458;2024-02-26T11:50:34;7.60;86.40
38488;DHT22;57384;51.986;4.458;2024-02-26T11:59:10;7.70;86.40
38488;DHT22;57384;51.986;4.458;2024-02-26T12:01:55;7.60;86.40
38488;DHT22;57384;51.986;4.458;2024-02-26T12:04:39;7.60;86.40
38488;DHT22;57384;51.986;4.458;2024-02-26T12:07:23;7.70;86.50
38488;DHT22;57384;51.986;4.458;2024-02-26T12:10:24;7.70;86.40
38488;DHT22;57384;51.986;4.458;2024-02-26T12:13:11;7.70;86.50
38488;DHT22;57384;51.986;4.458;2024-02-26T12:15:57;7.70;86.40
38488;DHT22;57384;51.986;4.458;2024-02-26T12:18:44;7.70;86.40
38488;DHT22;57384;51.986;4.458;2024-02-26T12:21:31;7.70;86.40
38488;DHT22;57384;51.986;4.458;2024-02-26T12:24:19;7.70;86.40
38488;DHT22;57384;51.986;4.458;2024-02-26T12:27:03;7.70;86.40
38488;DHT22;57384;51.986;4.458;2024-02-26T12:29:47;7.70;86.40
38488;DHT22;57384;51.986;4.458;2024-02-26T12:32:32;7.70;86.50
38488;DHT22;57384;51.986;4.458;2024-02-26T12:35:19;7.70;86.50
38488;DHT22;57384;51.986;4.458;2024-02-26T12:38:03;7.80;86.50
38488;DHT22;57384;51.986;4.458;2024-02-26T12:40:48;7.80;86.50
38488;DHT22;57384;51.986;4.458;2024-02-26T12:43:37;7.80;86.40
38488;DHT22;57384;51.986;4.458;2024-02-26T12:46:21;7.80;86.40
38488;DHT22;57384;51.986;4.458;2024-02-26T12:49:05;7.80;86.40
38488;DHT22;57384;51.986;4.458;2024-02-26T12:51:51;7.90;86.50
38488;DHT22;57384;51.986;4.458;2024-02-26T12:54:37;7.80;86.40
38488;DHT22;57384;51.986;4.458;2024-02-26T12:57:22;7.80;86.40
38488;DHT22;57384;51.986;4.458;2024-02-26T13:00:07;7.80;86.40
38488;DHT22;57384;51.986;4.458;2024-02-26T13:02:52;7.90;86.40
38488;DHT22;57384;51.986;4.458;2024-02-26T13:05:41;7.90;86.40
38488;DHT22;57384;51.986;4.458;2024-02-26T13:08:26;7.90;86.40
38488;DHT22;57384;51.986;4.458;2024-02-26T13:11:10;7.90;86.30
38488;DHT22;57384;51.986;4.458;2024-02-26T13:13:58;7.90;86.30
38488;DHT22;57384;51.986;4.458;2024-02-26T13:16:42;7.90;86.30
38488;DHT22;57384;51.986;4.458;2024-02-26T13:19:27;7.90;86.30
38488;DHT22;57384;51.986;4.458;2024-02-26T13:22:16;8.00;86.30
38488;DHT22;57384;51.986;4.458;2024-02-26T13:25:00;7.90;86.20
38488;DHT22;57384;51.986;4.458;2024-02-26T13:27:46;8.00;86.20
38488;DHT22;57384;51.986;4.458;2024-02-26T13:30:30;8.00;86.20
38488;DHT22;57384;51.986;4.458;2024-02-26T13:33:18;8.00;86.20
38488;DHT22;57384;51.986;4.458;2024-02-26T13:36:05;8.00;86.20
38488;DHT22;57384;51.986;4.458;2024-02-26T13:38:54;8.00;86.20
38488;DHT22;57384;51.986;4.458;2024-02-26T13:41:38;8.10;86.20
38488;DHT22;57384;51.986;4.458;2024-02-26T13:44:24;8.00;86.10
38488;DHT22;57384;51.986;4.458;2024-02-26T13:47:08;8.00;86.10
38488;DHT22;57384;51.986;4.458;2024-02-26T13:49:52;8.10;86.10
38488;DHT22;57384;51.986;4.458;2024-02-26T13:52:37;8.10;86.10
38488;DHT22;57384;51.986;4.458;2024-02-26T13:55:23;8.10;86.00
38488;DHT22;57384;51.986;4.458;2024-02-26T13:58:07;8.10;86.00
38488;DHT22;57384;51.986;4.458;2024-02-26T14:00:51;8.10;85.90
38488;DHT22;57384;51.986;4.458;2024-02-26T14:03:35;8.20;85.90
38488;DHT22;57384;51.986;4.458;2024-02-26T14:06:22;8.20;86.00
38488;DHT22;57384;51.986;4.458;2024-02-26T14:09:07;8.20;85.90
38488;DHT22;57384;51.986;4.458;2024-02-26T14:11:51;8.20;85.80
38488;DHT22;57384;51.986;4.458;2024-02-26T14:14:35;8.20;85.80
38488;DHT22;57384;51.986;4.458;2024-02-26T14:17:19;8.20;85.80
38488;DHT22;57384;51.986;4.458;2024-02-26T14:20:04;8.30;85.80
38488;DHT22;57384;51.986;4.458;2024-02-26T14:22:54;8.30;85.80
38488;DHT22;57384;51.986;4.458;2024-02-26T14:25:41;8.30;85.70
38488;DHT22;57384;51.986;4.458;2024-02-26T14:28:28;8.40;85.80
38488;DHT22;57384;51.986;4.458;2024-02-26T14:31:18;8.40;85.70
38488;DHT22;57384;51.986;4.458;2024-02-26T14:34:03;8.30;85.60
38488;DHT22;57384;51.986;4.458;2024-02-26T14:36:50;8.40;85.70
38488;DHT22;57384;51.986;4.458;2024-02-26T14:39:34;8.40;85.60
38488;DHT22;57384;51.986;4.458;2024-02-26T14:42:18;8.40;85.60
38488;DHT22;57384;51.986;4.458;2024-02-26T14:45:05;8.40;85.70
38488;DHT22;57384;51.986;4.458;2024-02-26T14:47:50;8.40;85.60
38488;DHT22;57384;51.986;4.458;2024-02-26T14:50:43;8.40;85.60
38488;DHT22;57384;51.986;4.458;2024-02-26T14:53:35;8.40;85.60
38488;DHT22;57384;51.986;4.458;2024-02-26T14:56:29;8.40;85.50
38488;DHT22;57384;51.986;4.458;2024-02-26T14:59:14;8.40;85.50
38488;DHT22;57384;51.986;4.458;2024-02-26T15:02:02;8.50;85.50
38488;DHT22;57384;51.986;4.458;2024-02-26T15:04:47;8.50;85.40
38488;DHT22;57384;51.986;4.458;2024-02-26T15:07:34;8.50;85.40
38488;DHT22;57384;51.986;4.458;2024-02-26T15:10:18;8.50;85.40
38488;DHT22;57384;51.986;4.458;2024-02-26T15:13:08;8.50;85.40
38488;DHT22;57384;51.986;4.458;2024-02-26T15:15:57;8.50;85.40
38488;DHT22;57384;51.986;4.458;2024-02-26T15:18:41;8.50;85.30
38488;DHT22;57384;51.986;4.458;2024-02-26T15:21:26;8.50;85.30
38488;DHT22;57384;51.986;4.458;2024-02-26T15:24:10;8.50;85.30
38488;DHT22;57384;51.986;4.458;2024-02-26T15:26:55;8.50;85.30
38488;DHT22;57384;51.986;4.458;2024-02-26T15:29:41;8.50;85.20
38488;DHT22;57384;51.986;4.458;2024-02-26T15:32:26;8.60;85.30
38488;DHT22;57384;51.986;4.458;2024-02-26T15:35:14;8.60;85.20
38488;DHT22;57384;51.986;4.458;2024-02-26T15:37:58;8.60;85.30
38488;DHT22;57384;51.986;4.458;2024-02-26T15:40:45;8.60;85.30
38488;DHT22;57384;51.986;4.458;2024-02-26T15:43:29;8.60;85.20
38488;DHT22;57384;51.986;4.458;2024-02-26T15:46:18;8.60;85.20
38488;DHT22;57384;51.986;4.458;2024-02-26T15:49:17;8.60;85.10
38488;DHT22;57384;51.986;4.458;2024-02-26T15:52:05;8.50;85.10
38488;DHT22;57384;51.986;4.458;2024-02-26T15:54:54;8.50;85.00
38488;DHT22;57384;51.986;4.458;2024-02-26T15:57:40;8.50;85.00
38488;DHT22;57384;51.986;4.458;2024-02-26T16:00:27;8.50;85.00
38488;DHT22;57384;51.986;4.458;2024-02-26T16:03:12;8.50;85.00
38488;DHT22;57384;51.986;4.458;2024-02-26T16:05:56;8.60;85.00
38488;DHT22;57384;51.986;4.458;2024-02-26T16:08:40;8.60;85.00
38488;DHT22;57384;51.986;4.458;2024-02-26T16:11:25;8.50;84.90
38488;DHT22;57384;51.986;4.458;2024-02-26T16:14:44;8.50;84.90
38488;DHT22;57384;51.986;4.458;2024-02-26T16:17:35;8.50;84.90
38488;DHT22;57384;51.986;4.458;2024-02-26T16:20:22;8.50;84.90
38488;DHT22;57384;51.986;4.458;2024-02-26T16:23:06;8.50;84.90
38488;DHT22;57384;51.986;4.458;2024-02-26T16:25:52;8.40;84.90
38488;DHT22;57384;51.986;4.458;2024-02-26T16:28:36;8.40;84.90
38488;DHT22;57384;51.986;4.458;2024-02-26T16:31:20;8.40;84.90
38488;DHT22;57384;51.986;4.458;2024-02-26T16:34:04;8.40;84.90
38488;DHT22;57384;51.986;4.458;2024-02-26T16:36:48;8.40;84.90
38488;DHT22;57384;51.986;4.458;2024-02-26T16:39:36;8.40;84.90
38488;DHT22;57384;51.986;4.458;2024-02-26T16:42:20;8.40;84.90
38488;DHT22;57384;51.986;4.458;2024-02-26T16:45:04;8.40;84.90
38488;DHT22;57384;51.986;4.458;2024-02-26T16:47:48;8.30;84.80
38488;DHT22;57384;51.986;4.458;2024-02-26T16:50:32;8.30;84.70
38488;DHT22;57384;51.986;4.458;2024-02-26T16:53:19;8.30;84.70
38488;DHT22;57384;51.986;4.458;2024-02-26T16:56:09;8.30;84.80
38488;DHT22;57384;51.986;4.458;2024-02-26T16:58:53;8.20;84.70
38488;DHT22;57384;51.986;4.458;2024-02-26T17:01:38;8.20;84.70
38488;DHT22;57384;51.986;4.458;2024-02-26T17:04:23;8.20;84.70
38488;DHT22;57384;51.986;4.458;2024-02-26T17:07:09;8.20;84.70
38488;DHT22;57384;51.986;4.458;2024-02-26T17:09:53;8.20;84.80
38488;DHT22;57384;51.986;4.458;2024-02-26T17:12:40;8.10;84.70
38488;DHT22;57384;51.986;4.458;2024-02-26T17:15:25;8.10;84.70
38488;DHT22;57384;51.986;4.458;2024-02-26T17:18:09;8.10;84.80
38488;DHT22;57384;51.986;4.458;2024-02-26T17:20:53;8.00;84.80
38488;DHT22;57384;51.986;4.458;2024-02-26T17:23:37;8.00;84.80
38488;DHT22;57384;51.986;4.458;2024-02-26T17:26:23;8.00;84.80
38488;DHT22;57384;51.986;4.458;2024-02-26T17:29:08;7.90;84.70
38488;DHT22;57384;51.986;4.458;2024-02-26T17:31:52;8.00;84.70
38488;DHT22;57384;51.986;4.458;2024-02-26T17:34:36;7.90;84.70
38488;DHT22;57384;51.986;4.458;2024-02-26T17:37:20;7.90;84.70
38488;DHT22;57384;51.986;4.458;2024-02-26T17:40:04;7.80;84.70
38488;DHT22;57384;51.986;4.458;2024-02-26T17:42:48;7.80;84.60
38488;DHT22;57384;51.986;4.458;2024-02-26T17:45:34;7.80;84.60
38488;DHT22;57384;51.986;4.458;2024-02-26T17:48:18;7.80;84.60
38488;DHT22;57384;51.986;4.458;2024-02-26T17:51:02;7.80;84.60
38488;DHT22;57384;51.986;4.458;2024-02-26T17:53:46;7.70;84.60
38488;DHT22;57384;51.986;4.458;2024-02-26T17:56:30;7.70;84.60
38488;DHT22;57384;51.986;4.458;2024-02-26T17:59:14;7.70;84.60
38488;DHT22;57384;51.986;4.458;2024-02-26T18:01:58;7.70;84.60
38488;DHT22;57384;51.986;4.458;2024-02-26T18:04:42;7.60;84.60
38488;DHT22;57384;51.986;4.458;2024-02-26T18:07:28;7.60;84.60
38488;DHT22;57384;51.986;4.458;2024-02-26T18:10:12;7.60;84.60
38488;DHT22;57384;51.986;4.458;2024-02-26T18:12:56;7.60;84.60
38488;DHT22;57384;51.986;4.458;2024-02-26T18:15:41;7.50;84.60
38488;DHT22;57384;51.986;4.458;2024-02-26T18:18:25;7.50;84.60
38488;DHT22;57384;51.986;4.458;2024-02-26T18:21:09;7.50;85.20
38488;DHT22;57384;51.986;4.458;2024-02-26T18:23:53;7.40;84.50
38488;DHT22;57384;51.986;4.458;2024-02-26T18:26:37;7.40;84.60
38488;DHT22;57384;51.986;4.458;2024-02-26T18:29:21;7.40;84.60
38488;DHT22;57384;51.986;4.458;2024-02-26T18:32:06;7.40;84.60
38488;DHT22;57384;51.986;4.458;2024-02-26T18:34:50;7.30;84.60
38488;DHT22;57384;51.986;4.458;2024-02-26T18:37:35;7.30;84.60
38488;DHT22;57384;51.986;4.458;2024-02-26T18:40:20;7.30;84.70
38488;DHT22;57384;51.986;4.458;2024-02-26T18:43:03;7.30;84.70
38488;DHT22;57384;51.986;4.458;2024-02-26T18:45:48;7.30;84.70
38488;DHT22;57384;51.986;4.458;2024-02-26T18:48:34;7.20;84.70
38488;DHT22;57384;51.986;4.458;2024-02-26T18:51:19;7.20;84.70
38488;DHT22;57384;51.986;4.458;2024-02-26T18:54:04;7.20;84.70
38488;DHT22;57384;51.986;4.458;2024-02-26T18:56:48;7.10;84.70
38488;DHT22;57384;51.986;4.458;2024-02-26T18:59:33;7.10;84.70
38488;DHT22;57384;51.986;4.458;2024-02-26T19:02:20;7.10;84.70
38488;DHT22;57384;51.986;4.458;2024-02-26T19:05:08;7.10;84.70
38488;DHT22;57384;51.986;4.458;2024-02-26T19:07:52;7.00;84.60
38488;DHT22;57384;51.986;4.458;2024-02-26T19:10:37;7.00;84.60
38488;DHT22;57384;51.986;4.458;2024-02-26T19:13:21;6.90;84.60
38488;DHT22;57384;51.986;4.458;2024-02-26T19:16:06;6.90;84.70
38488;DHT22;57384;51.986;4.458;2024-02-26T19:18:56;6.90;84.70
38488;DHT22;57384;51.986;4.458;2024-02-26T19:21:41;7.00;84.70
38488;DHT22;57384;51.986;4.458;2024-02-26T19:24:28;6.80;84.50
38488;DHT22;57384;51.986;4.458;2024-02-26T19:27:14;6.80;84.50
38488;DHT22;57384;51.986;4.458;2024-02-26T19:30:06;6.80;84.50
38488;DHT22;57384;51.986;4.458;2024-02-26T19:32:53;6.80;84.50
38488;DHT22;57384;51.986;4.458;2024-02-26T19:35:59;6.80;84.50
38488;DHT22;57384;51.986;4.458;2024-02-26T19:38:44;6.70;84.50
38488;DHT22;57384;51.986;4.458;2024-02-26T19:41:29;6.70;84.50
38488;DHT22;57384;51.986;4.458;2024-02-26T19:44:13;6.60;84.40
38488;DHT22;57384;51.986;4.458;2024-02-26T19:46:58;6.60;84.50
38488;DHT22;57384;51.986;4.458;2024-02-26T19:49:42;6.60;84.60
38488;DHT22;57384;51.986;4.458;2024-02-26T19:52:26;6.60;84.60
38488;DHT22;57384;51.986;4.458;2024-02-26T19:55:13;6.60;84.60
38488;DHT22;57384;51.986;4.458;2024-02-26T19:57:57;6.60;84.60
38488;DHT22;57384;51.986;4.458;2024-02-26T20:00:41;6.50;84.60
38488;DHT22;57384;51.986;4.458;2024-02-26T20:03:26;6.60;84.60
38488;DHT22;57384;51.986;4.458;2024-02-26T20:06:10;6.50;84.60
38488;DHT22;57384;51.986;4.458;2024-02-26T20:09:01;6.50;84.50
38488;DHT22;57384;51.986;4.458;2024-02-26T20:11:52;6.50;84.50
38488;DHT22;57384;51.986;4.458;2024-02-26T20:14:36;6.50;84.50
38488;DHT22;57384;51.986;4.458;2024-02-26T20:17:25;6.50;84.50
38488;DHT22;57384;51.986;4.458;2024-02-26T20:20:09;6.50;84.60
38488;DHT22;57384;51.986;4.458;2024-02-26T20:22:54;6.40;84.50
38488;DHT22;57384;51.986;4.458;2024-02-26T20:25:38;6.40;84.60
38488;DHT22;57384;51.986;4.458;2024-02-26T20:28:29;6.40;84.50
38488;DHT22;57384;51.986;4.458;2024-02-26T20:31:13;6.40;84.50
38488;DHT22;57384;51.986;4.458;2024-02-26T20:33:57;6.40;84.50
38488;DHT22;57384;51.986;4.458;2024-02-26T20:36:41;6.40;84.60
38488;DHT22;57384;51.986;4.458;2024-02-26T20:39:25;6.40;84.60
38488;DHT22;57384;51.986;4.458;2024-02-26T20:42:09;6.30;84.50
38488;DHT22;57384;51.986;4.458;2024-02-26T20:44:53;6.30;84.60
38488;DHT22;57384;51.986;4.458;2024-02-26T20:47:37;6.30;84.60
38488;DHT22;57384;51.986;4.458;2024-02-26T20:50:21;6.30;84.60
38488;DHT22;57384;51.986;4.458;2024-02-26T20:53:05;6.30;84.60
38488;DHT22;57384;51.986;4.458;2024-02-26T20:55:51;6.20;84.50
38488;DHT22;57384;51.986;4.458;2024-02-26T20:58:41;6.20;84.50
38488;DHT22;57384;51.986;4.458;2024-02-26T21:01:28;6.20;84.50
38488;DHT22;57384;51.986;4.458;2024-02-26T21:04:12;6.20;84.50
38488;DHT22;57384;51.986;4.458;2024-02-26T21:06:56;6.20;84.50
38488;DHT22;57384;51.986;4.458;2024-02-26T21:09:40;6.10;84.40
38488;DHT22;57384;51.986;4.458;2024-02-26T21:12:25;6.20;84.50
38488;DHT22;57384;51.986;4.458;2024-02-26T21:15:09;6.10;84.40
38488;DHT22;57384;51.986;4.458;2024-02-26T21:17:53;6.10;84.50
38488;DHT22;57384;51.986;4.458;2024-02-26T21:20:37;6.10;84.50
38488;DHT22;57384;51.986;4.458;2024-02-26T21:23:23;6.10;84.50
38488;DHT22;57384;51.986;4.458;2024-02-26T21:26:07;6.10;84.60
38488;DHT22;57384;51.986;4.458;2024-02-26T21:28:51;6.10;84.50
38488;DHT22;57384;51.986;4.458;2024-02-26T21:31:36;6.10;84.50
38488;DHT22;57384;51.986;4.458;2024-02-26T21:34:20;6.00;84.50
38488;DHT22;57384;51.986;4.458;2024-02-26T21:37:04;6.00;84.50
38488;DHT22;57384;51.986;4.458;2024-02-26T21:39:48;6.00;84.50
38488;DHT22;57384;51.986;4.458;2024-02-26T21:42:32;6.00;84.50
38488;DHT22;57384;51.986;4.458;2024-02-26T21:45:17;6.00;84.60
38488;DHT22;57384;51.986;4.458;2024-02-26T21:48:02;5.90;84.50
38488;DHT22;57384;51.986;4.458;2024-02-26T21:50:46;5.90;84.50
38488;DHT22;57384;51.986;4.458;2024-02-26T21:53:30;5.90;84.50
38488;DHT22;57384;51.986;4.458;2024-02-26T21:56:14;5.90;84.50
38488;DHT22;57384;51.986;4.458;2024-02-26T21:58:58;5.90;84.60
38488;DHT22;57384;51.986;4.458;2024-02-26T22:01:42;5.90;84.60
38488;DHT22;57384;51.986;4.458;2024-02-26T22:04:26;5.90;84.60
38488;DHT22;57384;51.986;4.458;2024-02-26T22:07:10;5.90;84.60
38488;DHT22;57384;51.986;4.458;2024-02-26T22:09:55;5.80;84.60
38488;DHT22;57384;51.986;4.458;2024-02-26T22:12:39;5.80;84.60
38488;DHT22;57384;51.986;4.458;2024-02-26T22:15:23;5.80;84.60
38488;DHT22;57384;51.986;4.458;2024-02-26T22:18:10;5.80;84.60
38488;DHT22;57384;51.986;4.458;2024-02-26T22:20:54;5.80;84.60
38488;DHT22;57384;51.986;4.458;2024-02-26T22:23:38;5.80;84.60
38488;DHT22;57384;51.986;4.458;2024-02-26T22:26:23;5.80;84.70